Wildwood Camp, Iowa
Current Conditions -  °F | °C
As of 1:52 PM on Friday 31 Oct 2014 (Local Time) from KDVN Reporting Station
Clear Clear  
Wind Chill: 34°   Ceiling: Unl
Heat Index: 43°   Visibility: 10mi
Dew Point: 19°   Wind: 21mph
Humidity: 38%   Direction: 360°N
Pressure: 30.34"   Gusts: 31mph
Location:  41.7317°N, 90.5411°W
Report Text: KDVN 311852Z AUTO 36018G27KT 10SM CLR 06/M07 A3034 RMK AO2 PK WND 01030/1825 SLP279 T00611072 TSNO
Loading
Personal Weather Stations






























Interactive Weather Map
Tropical Storm Tracking
New forecast layout! Learn more

10-Day Weather Forecast

Advertisements
Track Severe Weather on mobile